createdAt,value
2023-05-21T00:00:40.441Z,166.05
2023-05-21T00:01:40.469Z,166.48
2023-05-21T00:02:40.569Z,166.84
2023-05-21T00:03:40.652Z,174.66
2023-05-21T00:04:40.526Z,179.25
2023-05-21T00:05:40.581Z,177.50
2023-05-21T00:06:40.563Z,176.56
2023-05-21T00:07:40.562Z,174.90
2023-05-21T00:08:40.577Z,173.29
2023-05-21T00:09:40.584Z,176.96
2023-05-21T00:10:40.628Z,178.43
2023-05-21T00:11:40.662Z,173.82
2023-05-21T00:12:40.667Z,170.25
2023-05-21T00:13:40.715Z,169.14
2023-05-21T00:14:40.710Z,173.79
2023-05-21T00:15:40.707Z,170.13
2023-05-21T00:16:40.753Z,172.44
2023-05-21T00:17:40.752Z,172.14
2023-05-21T00:18:40.805Z,176.19
2023-05-21T00:19:40.764Z,172.25
2023-05-21T00:20:40.769Z,175.64
2023-05-21T00:21:40.788Z,173.48
2023-05-21T00:22:40.792Z,175.44
2023-05-21T00:23:40.821Z,171.89
2023-05-21T00:24:40.815Z,172.31
2023-05-21T00:25:40.815Z,176.98
2023-05-21T00:26:40.836Z,181.05
2023-05-21T00:27:40.855Z,176.47
2023-05-21T00:28:40.848Z,178.11
2023-05-21T00:29:42.933Z,171.84
2023-05-21T00:30:40.891Z,171.42
2023-05-21T00:31:40.950Z,174.68
2023-05-21T00:32:40.917Z,175.66
2023-05-21T00:33:40.850Z,176.52
2023-05-21T00:34:40.852Z,175.86
2023-05-21T00:35:40.827Z,184.16
2023-05-21T00:36:40.848Z,186.23
2023-05-21T00:37:40.830Z,188.81
2023-05-21T00:38:40.807Z,189.77
2023-05-21T00:39:40.799Z,191.46
2023-05-21T00:40:40.818Z,188.01
2023-05-21T00:41:40.787Z,192.24
2023-05-21T00:42:40.783Z,184.36
2023-05-21T00:43:40.804Z,183.84
2023-05-21T00:44:40.782Z,185.07
2023-05-21T00:45:40.819Z,183.63
2023-05-21T00:46:40.761Z,185.49
2023-05-21T00:47:40.761Z,188.91
2023-05-21T00:48:40.750Z,198.20
2023-05-21T00:49:40.736Z,203.44
2023-05-21T00:50:40.738Z,202.58
2023-05-21T00:51:40.723Z,200.13
2023-05-21T00:52:40.727Z,195.52
2023-05-21T00:53:40.727Z,197.31
2023-05-21T00:54:40.727Z,203.69
2023-05-21T00:55:40.724Z,203.57
2023-05-21T00:56:40.712Z,210.17
2023-05-21T00:57:40.700Z,203.86
2023-05-21T00:58:40.694Z,205.02
2023-05-21T00:59:40.682Z,203.08
2023-05-21T01:00:40.777Z,202.02
2023-05-21T01:01:40.804Z,198.09
2023-05-21T01:02:40.908Z,197.41
2023-05-21T01:03:40.687Z,200.80
2023-05-21T01:04:40.646Z,205.49
2023-05-21T01:05:40.649Z,207.21
2023-05-21T01:06:40.631Z,207.21
2023-05-21T01:07:40.641Z,211.54
2023-05-21T01:08:40.634Z,213.41
2023-05-21T01:09:40.605Z,217.66
2023-05-21T01:10:40.616Z,219.73
2023-05-21T01:11:40.619Z,227.24
2023-05-21T01:12:40.586Z,227.19
2023-05-21T01:13:40.592Z,224.35
2023-05-21T01:14:40.587Z,222.55
2023-05-21T01:15:40.576Z,227.77
2023-05-21T01:16:40.604Z,227.21
2023-05-21T01:17:40.587Z,228.22
2023-05-21T01:18:40.601Z,228.29
2023-05-21T01:19:40.599Z,231.57
2023-05-21T01:20:40.545Z,223.68
2023-05-21T01:21:40.529Z,225.96
2023-05-21T01:22:40.535Z,228.58
2023-05-21T01:23:40.514Z,227.81
2023-05-21T01:24:40.528Z,227.81
2023-05-21T01:25:40.523Z,227.79
2023-05-21T01:26:40.506Z,229.26
2023-05-21T01:27:40.509Z,228.03
2023-05-21T01:28:40.508Z,223.95
2023-05-21T01:29:40.499Z,225.93
2023-05-21T01:30:40.509Z,230.29
2023-05-21T01:31:40.496Z,230.56
2023-05-21T01:32:40.556Z,231.55
2023-05-21T01:33:40.574Z,232.07
2023-05-21T01:34:40.473Z,223.55
2023-05-21T01:35:40.480Z,221.14
2023-05-21T01:36:40.456Z,216.06
2023-05-21T01:37:40.461Z,221.97
2023-05-21T01:38:40.435Z,227.52
2023-05-21T01:39:40.440Z,227.95
2023-05-21T01:40:40.444Z,230.34
2023-05-21T01:41:40.427Z,227.99
2023-05-21T01:42:40.427Z,229.47
2023-05-21T01:43:40.419Z,233.54
2023-05-21T01:44:40.391Z,231.51
2023-05-21T01:45:40.412Z,232.39
2023-05-21T01:46:40.396Z,229.43
2023-05-21T01:47:40.389Z,231.74
2023-05-21T01:48:40.378Z,232.43
2023-05-21T01:49:40.372Z,229.98
2023-05-21T01:50:40.375Z,237.53
2023-05-21T01:51:40.354Z,233.21
2023-05-21T01:52:40.366Z,235.55
2023-05-21T01:53:40.334Z,234.82
2023-05-21T01:54:40.328Z,240.55
2023-05-21T01:55:40.356Z,239.72
2023-05-21T01:56:40.319Z,241.50
2023-05-21T01:57:40.328Z,242.60
2023-05-21T01:58:40.323Z,240.73
2023-05-21T01:59:40.320Z,240.66
2023-05-21T02:00:40.310Z,241.95
2023-05-21T02:01:40.343Z,237.57
2023-05-21T02:02:40.366Z,239.16
2023-05-21T02:03:40.369Z,239.77
2023-05-21T02:04:40.286Z,242.82
2023-05-21T02:05:40.277Z,238.94
2023-05-21T02:06:40.262Z,240.14
2023-05-21T02:07:40.263Z,237.56
2023-05-21T02:08:40.254Z,238.56
2023-05-21T02:09:40.261Z,232.30
2023-05-21T02:10:40.243Z,235.81
2023-05-21T02:11:40.261Z,239.47
2023-05-21T02:12:40.233Z,243.96
2023-05-21T02:13:40.225Z,248.21
2023-05-21T02:14:40.229Z,246.81
2023-05-21T02:15:40.206Z,249.56
2023-05-21T02:16:40.303Z,246.93
2023-05-21T02:17:40.232Z,245.29
2023-05-21T02:18:40.192Z,246.93
2023-05-21T02:19:40.199Z,244.73
2023-05-21T02:20:40.194Z,248.78
2023-05-21T02:21:40.185Z,248.94
2023-05-21T02:22:40.169Z,250.00
2023-05-21T02:23:40.197Z,246.23
2023-05-21T02:24:40.166Z,248.99
2023-05-21T02:25:40.171Z,246.29
2023-05-21T02:26:40.140Z,241.15
2023-05-21T02:27:40.132Z,240.70
2023-05-21T02:28:40.123Z,234.28
2023-05-21T02:29:40.126Z,236.89
2023-05-21T02:30:40.125Z,236.82
2023-05-21T02:31:40.097Z,234.92
2023-05-21T02:32:40.104Z,240.38
2023-05-21T02:33:40.142Z,234.93
2023-05-21T02:34:40.075Z,236.28
2023-05-21T02:35:40.079Z,236.37
2023-05-21T02:36:40.068Z,240.15
2023-05-21T02:37:40.080Z,239.66
2023-05-21T02:38:40.072Z,242.07
2023-05-21T02:39:40.067Z,243.29
2023-05-21T02:40:40.058Z,237.96
2023-05-21T02:41:40.055Z,241.76
2023-05-21T02:42:40.346Z,237.21
2023-05-21T02:43:40.047Z,237.04
2023-05-21T02:44:40.032Z,241.94
2023-05-21T02:45:40.121Z,241.29
2023-05-21T02:46:40.007Z,241.02
2023-05-21T02:47:40.047Z,240.68
2023-05-21T02:48:40.008Z,242.42
2023-05-21T02:49:39.994Z,247.84
2023-05-21T02:50:40.026Z,241.04
2023-05-21T02:51:39.982Z,243.15
2023-05-21T02:52:39.959Z,241.49
2023-05-21T02:53:39.968Z,239.44
2023-05-21T02:54:39.956Z,241.39
2023-05-21T02:55:39.967Z,243.15
2023-05-21T02:56:39.931Z,240.91
2023-05-21T02:57:39.938Z,245.95
2023-05-21T02:58:39.916Z,249.90
2023-05-21T02:59:39.932Z,248.37
2023-05-21T03:00:39.926Z,249.59
2023-05-21T03:01:39.941Z,244.14
2023-05-21T03:02:39.933Z,241.76
2023-05-21T03:03:39.947Z,242.84
2023-05-21T03:04:39.890Z,242.03
2023-05-21T03:05:39.898Z,240.17
2023-05-21T03:06:39.872Z,244.04
2023-05-21T03:07:39.860Z,242.19
2023-05-21T03:08:39.871Z,240.57
2023-05-21T03:09:39.858Z,235.68
2023-05-21T03:10:39.864Z,233.38
2023-05-21T03:11:39.833Z,238.19
2023-05-21T03:12:39.839Z,235.67
2023-05-21T03:13:39.879Z,239.87
2023-05-21T03:14:39.836Z,239.72
2023-05-21T03:15:39.896Z,241.79
2023-05-21T03:16:39.831Z,238.92
2023-05-21T03:17:39.917Z,240.94
2023-05-21T03:18:39.805Z,239.87
2023-05-21T03:19:39.781Z,242.69
2023-05-21T03:20:39.784Z,240.90
2023-05-21T03:21:39.779Z,240.75
2023-05-21T03:22:39.752Z,243.29
2023-05-21T03:23:39.762Z,244.21
2023-05-21T03:24:39.769Z,238.07
2023-05-21T03:25:39.736Z,239.50
2023-05-21T03:26:39.725Z,236.99
2023-05-21T03:27:39.742Z,238.44
2023-05-21T03:28:39.727Z,241.78
2023-05-21T03:29:39.720Z,239.48
2023-05-21T03:30:39.716Z,239.43
2023-05-21T03:31:39.700Z,239.94
2023-05-21T03:32:39.737Z,245.99
2023-05-21T03:33:39.695Z,240.43
2023-05-21T03:34:39.740Z,241.56
2023-05-21T03:35:39.672Z,243.71
2023-05-21T03:36:39.658Z,244.77
2023-05-21T03:37:39.678Z,242.08
2023-05-21T03:38:39.644Z,243.92
2023-05-21T03:39:39.659Z,243.57
2023-05-21T03:40:39.653Z,247.59
2023-05-21T03:41:39.639Z,244.60
2023-05-21T03:42:39.618Z,247.57
2023-05-21T03:43:39.620Z,246.95
2023-05-21T03:44:39.623Z,246.51
2023-05-21T03:45:41.561Z,248.17
2023-05-21T03:46:39.661Z,248.24
2023-05-21T03:47:39.592Z,248.21
2023-05-21T03:48:39.601Z,248.71
2023-05-21T03:49:39.577Z,244.66
2023-05-21T03:50:39.582Z,241.60
2023-05-21T03:51:39.700Z,247.44
2023-05-21T03:52:39.554Z,248.15
2023-05-21T03:53:39.546Z,249.74
2023-05-21T03:54:39.546Z,246.94
2023-05-21T03:55:39.538Z,244.04
2023-05-21T03:56:39.528Z,247.92
2023-05-21T03:57:39.547Z,246.49
2023-05-21T03:58:39.527Z,249.12
2023-05-21T03:59:39.510Z,248.37
2023-05-21T04:00:39.507Z,247.67
2023-05-21T04:01:39.508Z,243.69
2023-05-21T04:02:39.578Z,243.67
2023-05-21T04:03:40.873Z,243.04
2023-05-21T04:04:39.508Z,248.30
2023-05-21T04:05:39.485Z,242.34
2023-05-21T04:06:39.479Z,241.06
2023-05-21T04:07:39.468Z,245.28
2023-05-21T04:08:39.443Z,243.14
2023-05-21T04:09:39.453Z,248.66
2023-05-21T04:10:39.436Z,245.19
2023-05-21T04:11:39.429Z,244.84
2023-05-21T04:12:39.441Z,244.60
2023-05-21T04:13:39.421Z,243.30
2023-05-21T04:14:39.431Z,247.78
2023-05-21T04:15:39.601Z,244.17
2023-05-21T04:16:39.458Z,243.28
2023-05-21T04:17:39.426Z,239.88
2023-05-21T04:18:39.425Z,242.32
2023-05-21T04:19:39.499Z,240.17
2023-05-21T04:20:39.417Z,244.18
2023-05-21T04:21:39.394Z,244.14
2023-05-21T04:22:39.376Z,244.68
2023-05-21T04:23:39.381Z,247.10
2023-05-21T04:24:39.417Z,243.58
2023-05-21T04:25:39.346Z,244.44
2023-05-21T04:26:39.356Z,241.31
2023-05-21T04:27:39.328Z,236.91
2023-05-21T04:28:39.333Z,235.10
2023-05-21T04:29:39.312Z,243.24
2023-05-21T04:30:39.324Z,242.68
2023-05-21T04:31:39.342Z,240.20
2023-05-21T04:32:39.372Z,243.58
2023-05-21T04:33:39.284Z,241.44
2023-05-21T04:34:39.295Z,245.23
2023-05-21T04:35:39.274Z,242.76
2023-05-21T04:36:39.260Z,247.62
2023-05-21T04:37:39.257Z,247.77
2023-05-21T04:38:39.258Z,247.39
2023-05-21T04:39:39.256Z,247.94
2023-05-21T04:40:39.277Z,246.22
2023-05-21T04:41:39.218Z,249.48
2023-05-21T04:42:39.217Z,244.88
2023-05-21T04:43:39.222Z,246.53
2023-05-21T04:44:39.198Z,244.46
2023-05-21T04:45:39.212Z,243.30
2023-05-21T04:46:41.689Z,243.58
2023-05-21T04:47:39.212Z,247.90
2023-05-21T04:48:39.173Z,245.82
2023-05-21T04:49:39.170Z,250.00
2023-05-21T04:50:39.152Z,244.46
2023-05-21T04:51:39.174Z,239.88
2023-05-21T04:52:39.168Z,239.37
2023-05-21T04:53:39.135Z,236.71
2023-05-21T04:54:39.125Z,238.13
2023-05-21T04:55:39.135Z,241.30
2023-05-21T04:56:39.123Z,244.28
2023-05-21T04:57:39.109Z,243.51
2023-05-21T04:58:39.113Z,245.47
2023-05-21T04:59:39.094Z,246.29
2023-05-21T05:00:39.111Z,243.04
2023-05-21T05:01:39.082Z,241.98
2023-05-21T05:02:39.104Z,239.21
2023-05-21T05:03:39.114Z,237.31
2023-05-21T05:04:39.060Z,232.07
2023-05-21T05:05:39.220Z,230.86
2023-05-21T05:06:39.044Z,235.00
2023-05-21T05:07:39.031Z,222.57
2023-05-21T05:08:39.039Z,222.16
2023-05-21T05:09:39.037Z,225.66
2023-05-21T05:10:39.016Z,223.66
2023-05-21T05:11:39.022Z,223.55
2023-05-21T05:12:38.998Z,218.35
2023-05-21T05:13:38.995Z,218.51
2023-05-21T05:14:38.994Z,212.65
2023-05-21T05:15:39.003Z,214.48
2023-05-21T05:16:39.090Z,208.40
2023-05-21T05:17:39.021Z,201.89
2023-05-21T05:18:38.974Z,199.88
2023-05-21T05:19:38.959Z,195.85
2023-05-21T05:20:38.964Z,194.81
2023-05-21T05:21:38.955Z,186.77
2023-05-21T05:22:38.950Z,193.91
2023-05-21T05:23:38.928Z,191.16
2023-05-21T05:24:38.931Z,186.42
2023-05-21T05:25:39.016Z,180.92
2023-05-21T05:26:38.925Z,178.10
2023-05-21T05:27:38.904Z,169.53
2023-05-21T05:28:38.892Z,163.10
2023-05-21T05:29:38.904Z,154.69
2023-05-21T05:30:38.910Z,150.47
2023-05-21T05:31:38.877Z,145.96
2023-05-21T05:32:38.893Z,139.44
2023-05-21T05:33:38.861Z,139.18
2023-05-21T05:34:38.871Z,139.77
2023-05-21T05:35:38.896Z,137.67
2023-05-21T05:36:38.860Z,135.14
2023-05-21T05:37:38.837Z,135.80
2023-05-21T05:38:38.828Z,135.21
2023-05-21T05:39:38.820Z,133.29
2023-05-21T05:40:38.827Z,134.63
2023-05-21T05:41:38.828Z,136.13
2023-05-21T05:42:38.835Z,128.08
2023-05-21T05:43:38.878Z,127.98
2023-05-21T05:44:38.933Z,122.33
2023-05-21T05:45:39.307Z,118.50
2023-05-21T05:46:39.116Z,119.12
2023-05-21T05:47:39.044Z,115.57
2023-05-21T05:48:39.068Z,115.11
2023-05-21T05:49:39.081Z,111.67
2023-05-21T05:50:39.081Z,103.75
2023-05-21T05:51:39.122Z,106.90
2023-05-21T05:52:39.175Z,111.03
2023-05-21T05:53:39.232Z,109.35
2023-05-21T05:54:39.248Z,111.52
2023-05-21T05:55:39.439Z,115.02
2023-05-21T05:56:39.343Z,117.01
2023-05-21T05:57:39.348Z,116.55
2023-05-21T05:58:39.388Z,119.92
2023-05-21T05:59:39.425Z,121.97
2023-05-21T06:00:39.433Z,118.97
2023-05-21T06:01:39.448Z,120.10
2023-05-21T06:02:39.527Z,121.85
2023-05-21T06:03:39.542Z,124.10
2023-05-21T06:04:39.539Z,126.86
2023-05-21T06:05:39.838Z,123.07
2023-05-21T06:06:39.572Z,127.91
2023-05-21T06:07:39.643Z,128.46
2023-05-21T06:08:39.688Z,130.68
2023-05-21T06:09:39.727Z,132.83
2023-05-21T06:10:39.860Z,132.33
2023-05-21T06:11:39.819Z,130.27
2023-05-21T06:12:39.853Z,127.81
2023-05-21T06:13:39.862Z,137.36
2023-05-21T06:14:39.882Z,144.52
2023-05-21T06:15:39.901Z,145.16
2023-05-21T06:16:39.961Z,145.79
2023-05-21T06:17:39.949Z,148.41
2023-05-21T06:18:39.945Z,153.17
2023-05-21T06:19:39.975Z,144.73
2023-05-21T06:20:40.000Z,148.14
2023-05-21T06:21:40.050Z,154.17
2023-05-21T06:22:40.097Z,152.61
2023-05-21T06:23:40.141Z,152.33
2023-05-21T06:24:40.197Z,153.57
2023-05-21T06:25:40.357Z,151.75
2023-05-21T06:26:40.316Z,154.77
2023-05-21T06:27:40.369Z,157.99
2023-05-21T06:28:40.435Z,158.94
2023-05-21T06:29:40.497Z,157.60
2023-05-21T06:30:40.546Z,153.58
2023-05-21T06:31:40.626Z,155.46
2023-05-21T06:32:40.813Z,154.26
2023-05-21T06:33:40.876Z,160.22
2023-05-21T06:34:40.744Z,155.24
2023-05-21T06:35:40.779Z,152.71
2023-05-21T06:36:40.851Z,147.62
2023-05-21T06:37:40.892Z,150.08
2023-05-21T06:38:40.949Z,148.52
2023-05-21T06:39:41.010Z,153.27
2023-05-21T06:40:41.051Z,153.10
2023-05-21T06:41:41.132Z,148.30
2023-05-21T06:42:41.184Z,151.99
2023-05-21T06:43:41.336Z,153.08
2023-05-21T06:44:41.317Z,145.41
2023-05-21T06:45:41.591Z,141.66
2023-05-21T06:46:41.417Z,148.21
2023-05-21T06:47:41.490Z,136.03
2023-05-21T06:48:41.460Z,128.93
2023-05-21T06:49:41.518Z,138.42
2023-05-21T06:50:41.546Z,139.35
2023-05-21T06:51:41.594Z,118.48
2023-05-21T06:52:41.609Z,105.24
2023-05-21T06:53:41.630Z,92.85
2023-05-21T06:54:41.632Z,85.83
2023-05-21T06:55:41.629Z,92.09
2023-05-21T06:56:41.632Z,82.87
2023-05-21T06:57:41.636Z,90.39
2023-05-21T06:58:41.631Z,92.93
2023-05-21T06:59:41.631Z,93.93
2023-05-21T07:00:41.618Z,106.58
2023-05-21T07:01:41.721Z,104.79
2023-05-21T07:02:41.696Z,111.07
2023-05-21T07:03:41.662Z,113.54
2023-05-21T07:04:41.641Z,127.42
2023-05-21T07:05:41.654Z,138.34
2023-05-21T07:06:41.632Z,140.29
2023-05-21T07:07:41.643Z,137.34
2023-05-21T07:08:41.662Z,139.83
2023-05-21T07:09:41.676Z,147.95
2023-05-21T07:10:41.676Z,149.01
2023-05-21T07:11:41.655Z,152.41
2023-05-21T07:12:41.665Z,157.50
2023-05-21T07:13:41.665Z,161.55
2023-05-21T07:14:41.674Z,153.28
2023-05-21T07:15:41.688Z,152.46
2023-05-21T07:16:41.823Z,166.21
2023-05-21T07:17:41.788Z,159.16
2023-05-21T07:18:41.755Z,162.44
2023-05-21T07:19:41.726Z,157.57
2023-05-21T07:20:41.739Z,167.03
2023-05-21T07:21:41.731Z,169.48
2023-05-21T07:22:41.735Z,175.83
2023-05-21T07:23:41.748Z,171.62
2023-05-21T07:24:41.743Z,173.35
2023-05-21T07:25:41.764Z,174.60
2023-05-21T07:26:41.751Z,171.73
2023-05-21T07:27:41.763Z,177.78
2023-05-21T07:28:41.768Z,177.34
2023-05-21T07:29:41.783Z,171.51
2023-05-21T07:30:41.823Z,176.80
2023-05-21T07:31:41.816Z,174.60
2023-05-21T07:32:41.869Z,171.03
2023-05-21T07:33:41.796Z,173.94
2023-05-21T07:34:41.810Z,177.06
2023-05-21T07:35:41.802Z,173.30
2023-05-21T07:36:41.818Z,180.41
2023-05-21T07:37:41.889Z,178.18
2023-05-21T07:38:41.823Z,184.59
2023-05-21T07:39:41.816Z,177.79
2023-05-21T07:40:41.837Z,172.16
2023-05-21T07:41:41.821Z,176.28
2023-05-21T07:42:41.834Z,174.96
2023-05-21T07:43:41.820Z,181.76
2023-05-21T07:44:41.828Z,182.14
2023-05-21T07:45:41.843Z,182.73
2023-05-21T07:46:41.912Z,179.06
2023-05-21T07:47:41.936Z,173.67
2023-05-21T07:48:41.857Z,180.54
2023-05-21T07:49:41.835Z,172.67
2023-05-21T07:50:41.835Z,179.23
2023-05-21T07:51:41.839Z,168.88
2023-05-21T07:52:41.885Z,169.35
2023-05-21T07:53:41.844Z,171.86
2023-05-21T07:54:41.838Z,172.46
2023-05-21T07:55:41.815Z,171.36
2023-05-21T07:56:41.823Z,169.40
2023-05-21T07:57:41.852Z,164.85
2023-05-21T07:58:41.833Z,160.40
2023-05-21T07:59:41.862Z,161.17
2023-05-21T08:00:41.881Z,160.89
2023-05-21T08:01:41.911Z,157.65
2023-05-21T08:02:42.113Z,160.49
2023-05-21T08:03:41.995Z,160.01
2023-05-21T08:04:41.961Z,157.64
2023-05-21T08:05:41.977Z,162.62
2023-05-21T08:06:42.004Z,160.40
2023-05-21T08:07:41.988Z,169.06
2023-05-21T08:08:42.032Z,165.91
2023-05-21T08:09:42.055Z,155.66
2023-05-21T08:10:42.050Z,152.05
2023-05-21T08:11:42.047Z,154.84
2023-05-21T08:12:42.061Z,149.27
2023-05-21T08:13:42.077Z,153.65
2023-05-21T08:14:42.099Z,150.50
2023-05-21T08:15:42.095Z,155.55
2023-05-21T08:16:42.270Z,159.78
2023-05-21T08:17:42.178Z,162.44
2023-05-21T08:18:42.227Z,157.95
2023-05-21T08:19:42.197Z,156.39
2023-05-21T08:20:42.207Z,161.28
2023-05-21T08:21:42.231Z,157.90
2023-05-21T08:22:42.227Z,165.59
2023-05-21T08:23:42.235Z,160.93
2023-05-21T08:24:42.256Z,160.45
2023-05-21T08:25:42.253Z,166.37
2023-05-21T08:26:42.289Z,163.82
2023-05-21T08:27:42.268Z,168.52
2023-05-21T08:28:42.283Z,165.45
2023-05-21T08:29:42.299Z,171.80
2023-05-21T08:30:42.265Z,165.30
2023-05-21T08:31:42.342Z,169.12
2023-05-21T08:32:42.316Z,169.29
2023-05-21T08:33:42.297Z,171.24
2023-05-21T08:34:42.305Z,166.67
2023-05-21T08:35:42.318Z,166.46
2023-05-21T08:36:42.328Z,162.76
2023-05-21T08:37:42.330Z,160.25
2023-05-21T08:38:42.341Z,161.40
2023-05-21T08:39:42.353Z,154.69
2023-05-21T08:40:42.388Z,158.80
2023-05-21T08:41:42.366Z,153.67
2023-05-21T08:42:42.383Z,153.57
2023-05-21T08:43:42.362Z,149.02
2023-05-21T08:44:42.378Z,149.56
2023-05-21T08:45:42.396Z,139.23
2023-05-21T08:46:42.384Z,148.01
2023-05-21T08:47:42.405Z,147.23
2023-05-21T08:48:42.392Z,140.94
2023-05-21T08:49:42.408Z,140.03
2023-05-21T08:50:42.409Z,141.29
2023-05-21T08:51:42.434Z,137.96
2023-05-21T08:52:42.431Z,133.73
2023-05-21T08:53:42.474Z,122.30
2023-05-21T08:54:42.478Z,119.75
2023-05-21T08:55:42.486Z,127.78
2023-05-21T08:56:42.478Z,129.34
2023-05-21T08:57:42.532Z,130.31
2023-05-21T08:58:42.502Z,126.59
2023-05-21T08:59:42.501Z,117.60
2023-05-21T09:00:42.533Z,125.71
2023-05-21T09:01:42.689Z,129.71
2023-05-21T09:02:42.562Z,131.17
2023-05-21T09:03:42.601Z,118.03
2023-05-21T09:04:42.625Z,119.63
2023-05-21T09:05:42.560Z,120.33
2023-05-21T09:06:42.534Z,113.25
2023-05-21T09:07:42.539Z,118.15
2023-05-21T09:08:42.537Z,112.14
2023-05-21T09:09:42.544Z,117.05
2023-05-21T09:10:42.554Z,109.12
2023-05-21T09:11:42.565Z,106.66
2023-05-21T09:12:42.551Z,102.13
2023-05-21T09:13:42.585Z,98.79
2023-05-21T09:14:42.542Z,97.41
2023-05-21T09:15:42.554Z,99.39
2023-05-21T09:16:42.619Z,102.85
2023-05-21T09:17:42.588Z,99.54
2023-05-21T09:18:42.594Z,94.60
2023-05-21T09:19:42.607Z,91.28
2023-05-21T09:20:42.550Z,88.32
2023-05-21T09:21:42.575Z,91.55
2023-05-21T09:22:42.550Z,82.61
2023-05-21T09:23:42.552Z,74.03
2023-05-21T09:24:42.533Z,78.77
2023-05-21T09:25:42.566Z,73.47
2023-05-21T09:26:42.535Z,70.19
2023-05-21T09:27:42.543Z,54.08
2023-05-21T09:28:42.549Z,61.51
2023-05-21T09:29:42.564Z,61.16
2023-05-21T09:30:42.548Z,60.80
2023-05-21T09:31:42.608Z,62.27
2023-05-21T09:32:42.559Z,58.19
2023-05-21T09:33:42.565Z,57.07
2023-05-21T09:34:42.557Z,58.72
2023-05-21T09:35:42.557Z,43.28
2023-05-21T09:36:42.563Z,46.66
2023-05-21T09:37:42.568Z,40.25
2023-05-21T09:38:42.566Z,34.23
2023-05-21T09:39:42.569Z,27.36
2023-05-21T09:40:42.565Z,29.96
2023-05-21T09:41:42.567Z,27.27
2023-05-21T09:42:42.571Z,28.47
2023-05-21T09:43:42.577Z,29.43
2023-05-21T09:44:42.565Z,29.95
2023-05-21T09:45:42.586Z,37.19
2023-05-21T09:46:42.761Z,42.35
2023-05-21T09:47:42.668Z,35.50
2023-05-21T09:48:42.601Z,26.88
2023-05-21T09:49:42.583Z,25.02
2023-05-21T09:50:42.586Z,25.00
2023-05-21T09:51:42.573Z,25.00
2023-05-21T09:52:42.578Z,24.78
2023-05-21T09:53:42.582Z,31.38
2023-05-21T09:54:42.603Z,46.58
2023-05-21T09:55:42.630Z,35.12
2023-05-21T09:56:42.595Z,37.96
2023-05-21T09:57:42.619Z,34.09
2023-05-21T09:58:42.630Z,37.75
2023-05-21T09:59:42.635Z,31.23
2023-05-21T10:00:42.629Z,31.98
2023-05-21T10:01:42.667Z,35.13
2023-05-21T10:02:42.700Z,29.85
2023-05-21T10:03:42.666Z,25.80
2023-05-21T10:04:42.753Z,27.53
2023-05-21T10:05:42.728Z,25.00
2023-05-21T10:06:42.679Z,26.37
2023-05-21T10:07:42.671Z,32.32
2023-05-21T10:08:42.692Z,35.53
2023-05-21T10:09:42.686Z,38.53
2023-05-21T10:10:42.671Z,34.77
2023-05-21T10:11:42.711Z,28.25
2023-05-21T10:12:42.697Z,25.49
2023-05-21T10:13:42.717Z,25.83
2023-05-21T10:14:42.716Z,26.71
2023-05-21T10:15:42.715Z,33.08
2023-05-21T10:16:42.856Z,30.87
2023-05-21T10:17:42.759Z,25.32
2023-05-21T10:18:42.810Z,27.45
2023-05-21T10:19:42.738Z,25.37
2023-05-21T10:20:42.740Z,34.64
2023-05-21T10:21:42.756Z,31.80
2023-05-21T10:22:42.747Z,31.16
2023-05-21T10:23:42.759Z,35.59
2023-05-21T10:24:42.758Z,30.59
2023-05-21T10:25:42.766Z,25.30
2023-05-21T10:26:42.793Z,25.00
2023-05-21T10:27:42.862Z,27.87
2023-05-21T10:28:42.776Z,31.34
2023-05-21T10:29:42.787Z,41.41
2023-05-21T10:30:42.855Z,48.93
2023-05-21T10:31:42.832Z,48.11
2023-05-21T10:32:42.974Z,45.16
2023-05-21T10:33:42.840Z,46.19
2023-05-21T10:34:42.841Z,50.49
2023-05-21T10:35:42.844Z,52.76
2023-05-21T10:36:42.853Z,51.47
2023-05-21T10:37:42.866Z,44.95
2023-05-21T10:38:42.877Z,42.87
2023-05-21T10:39:42.878Z,53.74
2023-05-21T10:40:42.890Z,48.62
2023-05-21T10:41:42.935Z,45.27
2023-05-21T10:42:42.927Z,46.76
2023-05-21T10:43:42.953Z,44.36
2023-05-21T10:44:42.974Z,44.08
2023-05-21T10:45:43.037Z,40.92
2023-05-21T10:46:43.010Z,39.06
2023-05-21T10:47:43.025Z,39.58
2023-05-21T10:48:43.032Z,44.01
2023-05-21T10:49:43.047Z,46.24
2023-05-21T10:50:43.063Z,44.81
2023-05-21T10:51:43.088Z,39.76
2023-05-21T10:52:43.098Z,41.44
2023-05-21T10:53:43.103Z,38.98
2023-05-21T10:54:43.172Z,35.36
2023-05-21T10:55:43.181Z,32.61
2023-05-21T10:56:43.164Z,35.25
2023-05-21T10:57:43.180Z,34.11
2023-05-21T10:58:43.182Z,36.59
2023-05-21T10:59:43.193Z,29.68
2023-05-21T11:00:43.221Z,33.05
2023-05-21T11:01:43.346Z,33.15
2023-05-21T11:02:43.314Z,34.23
2023-05-21T11:03:43.350Z,36.29
2023-05-21T11:04:43.287Z,34.79
2023-05-21T11:05:43.323Z,32.51
2023-05-21T11:06:43.315Z,40.04
2023-05-21T11:07:43.328Z,34.26
2023-05-21T11:08:43.343Z,38.00
2023-05-21T11:09:43.363Z,41.74
2023-05-21T11:10:43.398Z,41.28
2023-05-21T11:11:43.402Z,34.03
2023-05-21T11:12:43.416Z,32.24
2023-05-21T11:13:43.448Z,38.28
2023-05-21T11:14:43.487Z,33.03
2023-05-21T11:15:43.464Z,35.24
2023-05-21T11:16:43.532Z,29.95
2023-05-21T11:17:43.518Z,29.36
2023-05-21T11:18:43.608Z,29.89
2023-05-21T11:19:43.614Z,28.08
2023-05-21T11:20:43.543Z,29.86
2023-05-21T11:21:43.569Z,32.23
2023-05-21T11:22:43.582Z,29.15
2023-05-21T11:23:43.602Z,34.29
2023-05-21T11:24:43.615Z,31.87
2023-05-21T11:25:43.636Z,30.87
2023-05-21T11:26:43.655Z,30.21
2023-05-21T11:27:43.676Z,31.39
2023-05-21T11:28:43.681Z,32.12
2023-05-21T11:29:43.708Z,31.23
2023-05-21T11:30:43.888Z,26.15
2023-05-21T11:31:43.849Z,27.05
2023-05-21T11:32:43.833Z,34.33
2023-05-21T11:33:43.778Z,30.43
2023-05-21T11:34:43.785Z,35.49
2023-05-21T11:35:43.814Z,33.41
2023-05-21T11:36:43.826Z,34.81
2023-05-21T11:37:43.851Z,35.98
2023-05-21T11:38:43.844Z,32.26
2023-05-21T11:39:43.870Z,29.61
2023-05-21T11:40:43.891Z,25.00
2023-05-21T11:41:43.933Z,42.31
2023-05-21T11:42:43.935Z,40.64
2023-05-21T11:43:43.978Z,29.97
2023-05-21T11:44:43.973Z,28.78
2023-05-21T11:45:43.965Z,26.81
2023-05-21T11:46:44.023Z,35.50
2023-05-21T11:47:44.049Z,32.61
2023-05-21T11:48:44.021Z,26.66
2023-05-21T11:49:44.036Z,28.08
2023-05-21T11:50:44.079Z,30.74
2023-05-21T11:51:44.095Z,27.00
2023-05-21T11:52:44.088Z,31.54
2023-05-21T11:53:44.343Z,32.83
2023-05-21T11:54:44.146Z,29.52
2023-05-21T11:55:44.147Z,27.45
2023-05-21T11:56:44.183Z,27.27
2023-05-21T11:57:44.206Z,32.38
2023-05-21T11:58:44.239Z,25.82
2023-05-21T11:59:44.242Z,28.44
2023-05-21T12:00:44.244Z,26.84
2023-05-21T12:01:44.287Z,29.36
2023-05-21T12:02:44.349Z,39.10
2023-05-21T12:03:44.392Z,37.98
2023-05-21T12:04:44.342Z,34.84
2023-05-21T12:05:44.444Z,33.30
2023-05-21T12:06:44.385Z,31.56
2023-05-21T12:07:44.405Z,25.00
2023-05-21T12:08:44.413Z,33.92
2023-05-21T12:09:44.451Z,29.26
2023-05-21T12:10:46.203Z,28.28
2023-05-21T12:11:44.490Z,34.15
2023-05-21T12:12:54.704Z,33.80
2023-05-21T12:13:45.516Z,33.93
2023-05-21T12:14:44.481Z,33.91
2023-05-21T12:15:44.472Z,34.18
2023-05-21T12:16:44.484Z,21.50
2023-05-21T12:17:44.491Z,20.94
2023-05-21T12:18:44.464Z,26.38
2023-05-21T12:19:44.443Z,30.20
2023-05-21T12:20:44.429Z,28.11
2023-05-21T12:21:44.432Z,33.68
2023-05-21T12:22:44.431Z,31.26
2023-05-21T12:23:44.421Z,35.00
2023-05-21T12:24:44.413Z,39.82
2023-05-21T12:25:44.405Z,46.18
2023-05-21T12:26:44.407Z,42.52
2023-05-21T12:27:44.393Z,40.95
2023-05-21T12:28:44.399Z,46.35
2023-05-21T12:29:44.384Z,56.10
2023-05-21T12:30:44.381Z,51.08
2023-05-21T12:31:44.423Z,47.74
2023-05-21T12:32:44.514Z,43.53
2023-05-21T12:33:44.437Z,44.29
2023-05-21T12:34:44.487Z,40.25
2023-05-21T12:35:44.539Z,41.25